sensor_id;sensor_type;location;lat;lon;timestamp;pressure;altitude;pressure_sealevel;temperature;humidity
78857;BME280;68207;50.078;19.936;2023-03-23T00:01:51;98570.45;;;9.94;64.01
78857;BME280;68207;50.078;19.936;2023-03-23T00:04:17;98568.98;;;9.92;64.04
78857;BME280;68207;50.078;19.936;2023-03-23T00:06:43;98563.89;;;9.91;64.39
78857;BME280;68207;50.078;19.936;2023-03-23T00:09:11;98569.52;;;9.90;64.40
78857;BME280;68207;50.078;19.936;2023-03-23T00:11:37;98566.52;;;9.87;64.47
78857;BME280;68207;50.078;19.936;2023-03-23T00:14:04;98568.02;;;9.83;64.64
78857;BME280;68207;50.078;19.936;2023-03-23T00:16:32;98565.79;;;9.79;64.57
78857;BME280;68207;50.078;19.936;2023-03-23T00:19:00;98567.58;;;9.75;64.77
78857;BME280;68207;50.078;19.936;2023-03-23T00:21:30;98567.42;;;9.68;64.92
78857;BME280;68207;50.078;19.936;2023-03-23T00:24:07;98567.90;;;9.63;65.15
78857;BME280;68207;50.078;19.936;2023-03-23T00:26:34;98571.14;;;9.58;65.01
78857;BME280;68207;50.078;19.936;2023-03-23T00:29:03;98565.91;;;9.53;65.30
78857;BME280;68207;50.078;19.936;2023-03-23T00:31:29;98566.50;;;9.48;65.24
78857;BME280;68207;50.078;19.936;2023-03-23T00:34:02;98570.50;;;9.42;65.40
78857;BME280;68207;50.078;19.936;2023-03-23T00:36:33;98564.95;;;9.35;65.59
78857;BME280;68207;50.078;19.936;2023-03-23T00:39:01;98562.96;;;9.31;65.53
78857;BME280;68207;50.078;19.936;2023-03-23T00:41:26;98564.26;;;9.29;65.76
78857;BME280;68207;50.078;19.936;2023-03-23T00:43:57;98558.46;;;9.23;65.85
78857;BME280;68207;50.078;19.936;2023-03-23T00:46:23;98559.60;;;9.21;65.99
78857;BME280;68207;50.078;19.936;2023-03-23T00:48:49;98556.84;;;9.19;66.01
78857;BME280;68207;50.078;19.936;2023-03-23T00:51:16;98553.58;;;9.17;66.24
78857;BME280;68207;50.078;19.936;2023-03-23T00:53:42;98558.55;;;9.13;66.07
78857;BME280;68207;50.078;19.936;2023-03-23T00:56:08;98551.83;;;9.09;66.21
78857;BME280;68207;50.078;19.936;2023-03-23T00:58:34;98554.73;;;9.05;66.25
78857;BME280;68207;50.078;19.936;2023-03-23T01:01:00;98550.52;;;9.01;66.36
78857;BME280;68207;50.078;19.936;2023-03-23T01:03:26;98549.21;;;8.98;66.48
78857;BME280;68207;50.078;19.936;2023-03-23T01:05:53;98544.83;;;8.95;66.44
78857;BME280;68207;50.078;19.936;2023-03-23T01:08:20;98542.77;;;8.93;66.55
78857;BME280;68207;50.078;19.936;2023-03-23T01:10:46;98547.26;;;8.92;66.56
78857;BME280;68207;50.078;19.936;2023-03-23T01:13:12;98547.46;;;8.90;66.55
78857;BME280;68207;50.078;19.936;2023-03-23T01:15:38;98545.42;;;8.88;66.51
78857;BME280;68207;50.078;19.936;2023-03-23T01:18:04;98544.23;;;8.86;66.77
78857;BME280;68207;50.078;19.936;2023-03-23T01:20:29;98544.82;;;8.84;66.83
78857;BME280;68207;50.078;19.936;2023-03-23T01:22:57;98545.54;;;8.82;66.90
78857;BME280;68207;50.078;19.936;2023-03-23T01:25:27;98542.28;;;8.80;67.02
78857;BME280;68207;50.078;19.936;2023-03-23T01:27:52;98545.40;;;8.77;67.05
78857;BME280;68207;50.078;19.936;2023-03-23T01:30:17;98548.64;;;8.73;67.05
78857;BME280;68207;50.078;19.936;2023-03-23T01:32:43;98546.94;;;8.70;67.21
78857;BME280;68207;50.078;19.936;2023-03-23T01:35:08;98544.80;;;8.65;67.22
78857;BME280;68207;50.078;19.936;2023-03-23T01:37:35;98538.66;;;8.63;67.25
78857;BME280;68207;50.078;19.936;2023-03-23T01:40:01;98539.27;;;8.63;67.35
78857;BME280;68207;50.078;19.936;2023-03-23T01:42:35;98540.00;;;8.61;67.34
78857;BME280;68207;50.078;19.936;2023-03-23T01:45:23;98536.38;;;8.60;67.38
78857;BME280;68207;50.078;19.936;2023-03-23T01:48:01;98542.42;;;8.58;67.44
78857;BME280;68207;50.078;19.936;2023-03-23T01:50:29;98541.47;;;8.56;67.77
78857;BME280;68207;50.078;19.936;2023-03-23T01:53:00;98545.94;;;8.55;67.85
78857;BME280;68207;50.078;19.936;2023-03-23T01:55:27;98549.59;;;8.54;67.99
78857;BME280;68207;50.078;19.936;2023-03-23T01:57:54;98548.77;;;8.52;68.23
78857;BME280;68207;50.078;19.936;2023-03-23T02:00:21;98548.23;;;8.51;68.06
78857;BME280;68207;50.078;19.936;2023-03-23T02:02:48;98547.15;;;8.52;68.06
78857;BME280;68207;50.078;19.936;2023-03-23T02:05:31;98546.27;;;8.56;68.33
78857;BME280;68207;50.078;19.936;2023-03-23T02:07:59;98545.02;;;8.60;68.22
78857;BME280;68207;50.078;19.936;2023-03-23T02:10:29;98542.87;;;8.64;68.21
78857;BME280;68207;50.078;19.936;2023-03-23T02:12:55;98546.25;;;8.66;68.28
78857;BME280;68207;50.078;19.936;2023-03-23T02:15:20;98545.92;;;8.68;68.24
78857;BME280;68207;50.078;19.936;2023-03-23T02:17:50;98545.19;;;8.68;68.39
78857;BME280;68207;50.078;19.936;2023-03-23T02:20:43;98543.99;;;8.65;68.41
78857;BME280;68207;50.078;19.936;2023-03-23T02:29:17;98539.23;;;8.62;68.56
78857;BME280;68207;50.078;19.936;2023-03-23T02:31:56;98541.48;;;8.64;68.63
78857;BME280;68207;50.078;19.936;2023-03-23T02:34:33;98541.05;;;8.64;68.75
78857;BME280;68207;50.078;19.936;2023-03-23T02:37:03;98545.17;;;8.64;68.82
78857;BME280;68207;50.078;19.936;2023-03-23T02:39:33;98543.75;;;8.64;68.95
78857;BME280;68207;50.078;19.936;2023-03-23T02:44:30;98543.06;;;8.64;69.02
78857;BME280;68207;50.078;19.936;2023-03-23T02:46:57;98540.50;;;8.60;69.14
78857;BME280;68207;50.078;19.936;2023-03-23T02:49:25;98538.97;;;8.53;69.29
78857;BME280;68207;50.078;19.936;2023-03-23T02:51:54;98542.54;;;8.50;69.48
78857;BME280;68207;50.078;19.936;2023-03-23T02:54:23;98541.02;;;8.49;69.57
78857;BME280;68207;50.078;19.936;2023-03-23T02:56:51;98539.60;;;8.47;69.59
78857;BME280;68207;50.078;19.936;2023-03-23T02:59:18;98543.36;;;8.50;69.57
78857;BME280;68207;50.078;19.936;2023-03-23T03:04:13;98532.02;;;8.48;69.82
78857;BME280;68207;50.078;19.936;2023-03-23T03:07:13;98528.27;;;8.50;69.74
78857;BME280;68207;50.078;19.936;2023-03-23T03:09:56;98523.20;;;8.48;69.84
78857;BME280;68207;50.078;19.936;2023-03-23T03:12:33;98522.54;;;8.47;69.80
78857;BME280;68207;50.078;19.936;2023-03-23T03:18:02;98519.19;;;8.46;69.96
78857;BME280;68207;50.078;19.936;2023-03-23T03:20:30;98518.84;;;8.47;70.24
78857;BME280;68207;50.078;19.936;2023-03-23T03:22:57;98516.33;;;8.48;70.16
78857;BME280;68207;50.078;19.936;2023-03-23T03:25:25;98518.02;;;8.50;70.11
78857;BME280;68207;50.078;19.936;2023-03-23T03:27:52;98516.63;;;8.51;70.00
78857;BME280;68207;50.078;19.936;2023-03-23T03:30:21;98515.46;;;8.52;69.80
78857;BME280;68207;50.078;19.936;2023-03-23T03:32:51;98514.63;;;8.53;69.91
78857;BME280;68207;50.078;19.936;2023-03-23T03:35:20;98513.54;;;8.54;69.80
78857;BME280;68207;50.078;19.936;2023-03-23T03:37:46;98514.27;;;8.54;69.71
78857;BME280;68207;50.078;19.936;2023-03-23T03:40:15;98510.83;;;8.53;69.71
78857;BME280;68207;50.078;19.936;2023-03-23T03:42:43;98517.45;;;8.52;69.63
78857;BME280;68207;50.078;19.936;2023-03-23T03:45:11;98513.19;;;8.52;69.58
78857;BME280;68207;50.078;19.936;2023-03-23T03:47:38;98510.60;;;8.53;69.62
78857;BME280;68207;50.078;19.936;2023-03-23T03:50:03;98513.11;;;8.56;69.59
78857;BME280;68207;50.078;19.936;2023-03-23T03:52:29;98514.30;;;8.57;69.55
78857;BME280;68207;50.078;19.936;2023-03-23T03:54:55;98513.30;;;8.56;69.54
78857;BME280;68207;50.078;19.936;2023-03-23T03:57:21;98516.41;;;8.55;69.60
78857;BME280;68207;50.078;19.936;2023-03-23T03:59:46;98514.05;;;8.51;69.53
78857;BME280;68207;50.078;19.936;2023-03-23T04:02:12;98512.30;;;8.48;69.46
78857;BME280;68207;50.078;19.936;2023-03-23T04:04:41;98508.69;;;8.45;69.48
78857;BME280;68207;50.078;19.936;2023-03-23T04:07:07;98505.83;;;8.43;69.57
78857;BME280;68207;50.078;19.936;2023-03-23T04:09:32;98509.36;;;8.39;69.52
78857;BME280;68207;50.078;19.936;2023-03-23T04:11:57;98509.54;;;8.38;69.50
78857;BME280;68207;50.078;19.936;2023-03-23T04:14:22;98508.48;;;8.38;69.61
78857;BME280;68207;50.078;19.936;2023-03-23T04:16:48;98508.02;;;8.37;69.58
78857;BME280;68207;50.078;19.936;2023-03-23T04:19:17;98507.92;;;8.36;69.63
78857;BME280;68207;50.078;19.936;2023-03-23T04:21:43;98508.94;;;8.35;69.50
78857;BME280;68207;50.078;19.936;2023-03-23T04:24:10;98504.68;;;8.33;69.54
78857;BME280;68207;50.078;19.936;2023-03-23T04:26:36;98510.73;;;8.31;69.51
78857;BME280;68207;50.078;19.936;2023-03-23T04:29:02;98509.90;;;8.29;69.59
78857;BME280;68207;50.078;19.936;2023-03-23T04:31:28;98509.08;;;8.29;69.71
78857;BME280;68207;50.078;19.936;2023-03-23T04:33:53;98509.66;;;8.26;69.61
78857;BME280;68207;50.078;19.936;2023-03-23T04:36:19;98507.42;;;8.23;69.75
78857;BME280;68207;50.078;19.936;2023-03-23T04:38:45;98509.08;;;8.24;69.66
78857;BME280;68207;50.078;19.936;2023-03-23T04:41:10;98510.90;;;8.25;69.87
78857;BME280;68207;50.078;19.936;2023-03-23T04:43:35;98504.38;;;8.25;69.77
78857;BME280;68207;50.078;19.936;2023-03-23T04:46:07;98510.98;;;8.24;69.70
78857;BME280;68207;50.078;19.936;2023-03-23T04:48:33;98511.29;;;8.23;69.73
78857;BME280;68207;50.078;19.936;2023-03-23T04:51:01;98510.98;;;8.21;69.94
78857;BME280;68207;50.078;19.936;2023-03-23T04:53:28;98512.27;;;8.19;69.85
78857;BME280;68207;50.078;19.936;2023-03-23T04:55:54;98511.73;;;8.17;69.75
78857;BME280;68207;50.078;19.936;2023-03-23T04:58:19;98513.56;;;8.17;69.82
78857;BME280;68207;50.078;19.936;2023-03-23T05:00:45;98517.06;;;8.15;69.81
78857;BME280;68207;50.078;19.936;2023-03-23T05:03:15;98516.23;;;8.16;69.91
78857;BME280;68207;50.078;19.936;2023-03-23T05:05:41;98522.79;;;8.21;69.86
78857;BME280;68207;50.078;19.936;2023-03-23T05:08:07;98525.28;;;8.24;70.15
78857;BME280;68207;50.078;19.936;2023-03-23T05:10:32;98522.20;;;8.28;69.93
78857;BME280;68207;50.078;19.936;2023-03-23T05:12:57;98520.62;;;8.29;70.03
78857;BME280;68207;50.078;19.936;2023-03-23T05:15:23;98520.82;;;8.29;70.12
78857;BME280;68207;50.078;19.936;2023-03-23T05:17:51;98523.27;;;8.31;70.13
78857;BME280;68207;50.078;19.936;2023-03-23T05:20:17;98520.34;;;8.32;69.84
78857;BME280;68207;50.078;19.936;2023-03-23T05:22:46;98526.98;;;8.34;70.16
78857;BME280;68207;50.078;19.936;2023-03-23T05:25:15;98522.50;;;8.35;69.89
78857;BME280;68207;50.078;19.936;2023-03-23T05:27:40;98522.99;;;8.38;70.02
78857;BME280;68207;50.078;19.936;2023-03-23T05:30:14;98517.96;;;8.42;69.94
78857;BME280;68207;50.078;19.936;2023-03-23T05:32:44;98514.95;;;8.46;69.89
78857;BME280;68207;50.078;19.936;2023-03-23T05:35:11;98517.25;;;8.51;69.93
78857;BME280;68207;50.078;19.936;2023-03-23T05:37:37;98518.46;;;8.57;70.02
78857;BME280;68207;50.078;19.936;2023-03-23T05:40:04;98512.13;;;8.63;69.87
78857;BME280;68207;50.078;19.936;2023-03-23T05:42:35;98514.26;;;8.69;69.80
78857;BME280;68207;50.078;19.936;2023-03-23T05:45:02;98519.71;;;8.72;69.51
78857;BME280;68207;50.078;19.936;2023-03-23T05:47:28;98515.83;;;8.77;69.66
78857;BME280;68207;50.078;19.936;2023-03-23T05:49:54;98517.83;;;8.83;69.64
78857;BME280;68207;50.078;19.936;2023-03-23T05:52:20;98523.25;;;8.88;69.53
78857;BME280;68207;50.078;19.936;2023-03-23T05:54:45;98523.48;;;8.97;69.51
78857;BME280;68207;50.078;19.936;2023-03-23T05:57:11;98524.25;;;9.08;69.38
78857;BME280;68207;50.078;19.936;2023-03-23T05:59:36;98528.83;;;9.22;69.42
78857;BME280;68207;50.078;19.936;2023-03-23T06:02:02;98530.71;;;9.37;69.33
78857;BME280;68207;50.078;19.936;2023-03-23T06:04:28;98532.85;;;9.52;69.29
78857;BME280;68207;50.078;19.936;2023-03-23T06:06:53;98531.45;;;9.67;69.07
78857;BME280;68207;50.078;19.936;2023-03-23T06:09:19;98527.69;;;9.82;69.00
78857;BME280;68207;50.078;19.936;2023-03-23T06:11:45;98521.34;;;9.97;68.68
78857;BME280;68207;50.078;19.936;2023-03-23T06:14:10;98519.35;;;10.13;68.75
78857;BME280;68207;50.078;19.936;2023-03-23T06:16:38;98515.14;;;10.29;68.31
78857;BME280;68207;50.078;19.936;2023-03-23T06:19:04;98513.55;;;10.45;67.96
78857;BME280;68207;50.078;19.936;2023-03-23T06:21:30;98511.12;;;10.61;67.88
78857;BME280;68207;50.078;19.936;2023-03-23T06:23:55;98512.83;;;10.79;67.37
78857;BME280;68207;50.078;19.936;2023-03-23T06:26:28;98510.11;;;10.97;67.30
78857;BME280;68207;50.078;19.936;2023-03-23T06:28:53;98509.73;;;11.16;66.73
78857;BME280;68207;50.078;19.936;2023-03-23T06:31:19;98511.94;;;11.34;66.60
78857;BME280;68207;50.078;19.936;2023-03-23T06:33:45;98513.60;;;11.52;66.30
78857;BME280;68207;50.078;19.936;2023-03-23T06:36:12;98514.58;;;11.71;65.79
78857;BME280;68207;50.078;19.936;2023-03-23T06:38:37;98512.29;;;11.89;65.37
78857;BME280;68207;50.078;19.936;2023-03-23T06:41:03;98512.45;;;12.08;65.16
78857;BME280;68207;50.078;19.936;2023-03-23T06:43:29;98516.23;;;12.28;64.82
78857;BME280;68207;50.078;19.936;2023-03-23T06:45:54;98514.62;;;12.48;64.38
78857;BME280;68207;50.078;19.936;2023-03-23T06:48:20;98512.96;;;12.73;64.08
78857;BME280;68207;50.078;19.936;2023-03-23T06:50:45;98514.65;;;12.94;63.09
78857;BME280;68207;50.078;19.936;2023-03-23T06:53:11;98512.23;;;13.14;62.26
78857;BME280;68207;50.078;19.936;2023-03-23T06:55:37;98510.96;;;13.27;60.69
78857;BME280;68207;50.078;19.936;2023-03-23T06:58:04;98507.11;;;13.37;60.40
78857;BME280;68207;50.078;19.936;2023-03-23T07:00:30;98510.95;;;13.54;60.31
78857;BME280;68207;50.078;19.936;2023-03-23T07:02:56;98512.10;;;13.74;59.70
78857;BME280;68207;50.078;19.936;2023-03-23T07:05:21;98515.02;;;13.93;58.99
78857;BME280;68207;50.078;19.936;2023-03-23T07:07:47;98519.98;;;14.11;57.85
78857;BME280;68207;50.078;19.936;2023-03-23T07:10:12;98523.46;;;14.20;57.71
78857;BME280;68207;50.078;19.936;2023-03-23T07:12:37;98518.77;;;14.39;57.85
78857;BME280;68207;50.078;19.936;2023-03-23T07:15:03;98515.45;;;14.62;57.67
78857;BME280;68207;50.078;19.936;2023-03-23T07:17:29;98511.23;;;14.86;56.91
78857;BME280;68207;50.078;19.936;2023-03-23T07:19:54;98507.85;;;15.05;56.30
78857;BME280;68207;50.078;19.936;2023-03-23T07:22:20;98507.55;;;15.26;56.06
78857;BME280;68207;50.078;19.936;2023-03-23T07:24:46;98509.26;;;15.48;55.72
78857;BME280;68207;50.078;19.936;2023-03-23T07:27:11;98506.55;;;15.66;55.00
78857;BME280;68207;50.078;19.936;2023-03-23T07:29:36;98507.88;;;15.84;54.67
78857;BME280;68207;50.078;19.936;2023-03-23T07:32:04;98506.79;;;16.03;54.26
78857;BME280;68207;50.078;19.936;2023-03-23T07:34:29;98513.30;;;16.17;53.55
78857;BME280;68207;50.078;19.936;2023-03-23T07:36:55;98507.14;;;16.29;53.40
78857;BME280;68207;50.078;19.936;2023-03-23T07:39:20;98506.01;;;16.46;52.89
78857;BME280;68207;50.078;19.936;2023-03-23T07:41:46;98503.18;;;16.55;51.76
78857;BME280;68207;50.078;19.936;2023-03-23T07:44:11;98505.27;;;16.56;50.89
78857;BME280;68207;50.078;19.936;2023-03-23T07:46:36;98509.64;;;16.58;51.03
78857;BME280;68207;50.078;19.936;2023-03-23T07:49:02;98512.17;;;16.62;50.74
78857;BME280;68207;50.078;19.936;2023-03-23T07:51:31;98516.09;;;16.72;50.00
78857;BME280;68207;50.078;19.936;2023-03-23T07:53:56;98513.15;;;16.77;49.48
78857;BME280;68207;50.078;19.936;2023-03-23T07:56:22;98514.25;;;16.80;48.29
78857;BME280;68207;50.078;19.936;2023-03-23T07:58:48;98504.25;;;16.82;48.34
78857;BME280;68207;50.078;19.936;2023-03-23T08:01:14;98509.10;;;16.87;47.78
78857;BME280;68207;50.078;19.936;2023-03-23T08:03:39;98509.19;;;16.89;47.96
78857;BME280;68207;50.078;19.936;2023-03-23T08:06:05;98507.64;;;16.92;47.93
78857;BME280;68207;50.078;19.936;2023-03-23T08:08:31;98508.03;;;16.96;47.50
78857;BME280;68207;50.078;19.936;2023-03-23T08:10:57;98516.05;;;16.95;46.58
78857;BME280;68207;50.078;19.936;2023-03-23T08:13:22;98512.40;;;16.92;46.74
78857;BME280;68207;50.078;19.936;2023-03-23T08:15:48;98512.21;;;16.89;46.79
78857;BME280;68207;50.078;19.936;2023-03-23T08:18:15;98524.88;;;16.86;46.29
78857;BME280;68207;50.078;19.936;2023-03-23T08:20:40;98522.88;;;16.80;46.31
78857;BME280;68207;50.078;19.936;2023-03-23T08:23:06;98524.64;;;16.71;46.11
78857;BME280;68207;50.078;19.936;2023-03-23T08:25:33;98520.30;;;16.64;46.79
78857;BME280;68207;50.078;19.936;2023-03-23T08:27:59;98521.04;;;16.63;47.26
78857;BME280;68207;50.078;19.936;2023-03-23T08:30:27;98523.15;;;16.62;46.34
78857;BME280;68207;50.078;19.936;2023-03-23T08:32:55;98520.64;;;16.57;46.73
78857;BME280;68207;50.078;19.936;2023-03-23T08:35:20;98518.56;;;16.57;47.31
78857;BME280;68207;50.078;19.936;2023-03-23T08:37:46;98523.09;;;16.59;46.63
78857;BME280;68207;50.078;19.936;2023-03-23T08:40:17;98518.69;;;16.57;46.94
78857;BME280;68207;50.078;19.936;2023-03-23T08:42:45;98523.10;;;16.58;46.47
78857;BME280;68207;50.078;19.936;2023-03-23T08:45:13;98525.35;;;16.57;46.26
78857;BME280;68207;50.078;19.936;2023-03-23T08:47:40;98517.92;;;16.55;46.73
78857;BME280;68207;50.078;19.936;2023-03-23T08:50:07;98517.33;;;16.57;46.40
78857;BME280;68207;50.078;19.936;2023-03-23T08:52:33;98518.04;;;16.58;46.28
78857;BME280;68207;50.078;19.936;2023-03-23T08:54:59;98523.55;;;16.60;45.78
78857;BME280;68207;50.078;19.936;2023-03-23T08:57:26;98518.40;;;16.59;45.91
78857;BME280;68207;50.078;19.936;2023-03-23T08:59:51;98521.31;;;16.62;45.71
78857;BME280;68207;50.078;19.936;2023-03-23T09:02:19;98515.16;;;16.62;45.72
78857;BME280;68207;50.078;19.936;2023-03-23T09:04:44;98519.02;;;16.65;45.78
78857;BME280;68207;50.078;19.936;2023-03-23T09:07:10;98520.08;;;16.69;45.26
78857;BME280;68207;50.078;19.936;2023-03-23T09:09:37;98523.00;;;16.73;45.44
78857;BME280;68207;50.078;19.936;2023-03-23T09:12:06;98516.27;;;16.79;45.50
78857;BME280;68207;50.078;19.936;2023-03-23T09:14:31;98515.33;;;16.85;44.76
78857;BME280;68207;50.078;19.936;2023-03-23T09:16:57;98517.32;;;16.91;44.83
78857;BME280;68207;50.078;19.936;2023-03-23T09:19:22;98516.50;;;16.98;44.43
78857;BME280;68207;50.078;19.936;2023-03-23T09:21:47;98515.79;;;17.06;44.56
78857;BME280;68207;50.078;19.936;2023-03-23T09:24:13;98516.58;;;17.20;43.93
78857;BME280;68207;50.078;19.936;2023-03-23T09:26:39;98513.35;;;17.27;43.54
78857;BME280;68207;50.078;19.936;2023-03-23T09:29:04;98513.10;;;17.36;43.19
78857;BME280;68207;50.078;19.936;2023-03-23T09:31:30;98510.83;;;17.46;43.56
78857;BME280;68207;50.078;19.936;2023-03-23T09:33:57;98514.31;;;17.56;43.25
78857;BME280;68207;50.078;19.936;2023-03-23T09:36:24;98506.72;;;17.62;43.00
78857;BME280;68207;50.078;19.936;2023-03-23T09:38:51;98505.45;;;17.69;42.82
78857;BME280;68207;50.078;19.936;2023-03-23T09:47:11;98504.23;;;17.83;41.90
78857;BME280;68207;50.078;19.936;2023-03-23T09:49:56;98496.21;;;17.86;41.67
78857;BME280;68207;50.078;19.936;2023-03-23T09:52:32;98494.56;;;17.93;41.70
78857;BME280;68207;50.078;19.936;2023-03-23T09:54:59;98491.69;;;18.00;41.06
78857;BME280;68207;50.078;19.936;2023-03-23T09:57:37;98490.38;;;18.07;41.31
78857;BME280;68207;50.078;19.936;2023-03-23T10:02:52;98484.35;;;18.45;40.91
78857;BME280;68207;50.078;19.936;2023-03-23T10:05:28;98481.00;;;18.67;40.61
78857;BME280;68207;50.078;19.936;2023-03-23T10:07:55;98479.50;;;18.92;40.41
78857;BME280;68207;50.078;19.936;2023-03-23T10:10:26;98477.99;;;19.16;39.83
78857;BME280;68207;50.078;19.936;2023-03-23T10:13:20;98468.23;;;19.34;39.05
78857;BME280;68207;50.078;19.936;2023-03-23T10:15:49;98470.16;;;19.49;38.22
78857;BME280;68207;50.078;19.936;2023-03-23T10:18:41;98473.98;;;19.55;37.33
78857;BME280;68207;50.078;19.936;2023-03-23T10:21:16;98474.47;;;19.67;36.94
78857;BME280;68207;50.078;19.936;2023-03-23T10:24:03;98464.68;;;19.78;36.79
78857;BME280;68207;50.078;19.936;2023-03-23T10:26:44;98461.66;;;20.03;36.32
78857;BME280;68207;50.078;19.936;2023-03-23T10:29:17;98466.27;;;20.52;36.60
78857;BME280;68207;50.078;19.936;2023-03-23T10:31:52;98460.56;;;20.89;34.44
78857;BME280;68207;50.078;19.936;2023-03-23T10:37:12;98466.29;;;21.19;32.52
78857;BME280;68207;50.078;19.936;2023-03-23T10:39:51;98455.15;;;21.18;33.45
78857;BME280;68207;50.078;19.936;2023-03-23T10:42:38;98442.73;;;21.35;33.79
78857;BME280;68207;50.078;19.936;2023-03-23T10:45:16;98445.22;;;21.52;33.23
78857;BME280;68207;50.078;19.936;2023-03-23T10:47:44;98437.91;;;21.66;33.49
78857;BME280;68207;50.078;19.936;2023-03-23T10:50:15;98443.41;;;21.89;32.75
78857;BME280;68207;50.078;19.936;2023-03-23T10:52:42;98438.56;;;22.02;32.05
78857;BME280;68207;50.078;19.936;2023-03-23T10:55:18;98429.63;;;22.06;32.02
78857;BME280;68207;50.078;19.936;2023-03-23T10:58:02;98438.30;;;22.11;30.42
78857;BME280;68207;50.078;19.936;2023-03-23T11:00:28;98434.42;;;22.04;29.74
78857;BME280;68207;50.078;19.936;2023-03-23T11:03:03;98436.40;;;22.01;29.88
78857;BME280;68207;50.078;19.936;2023-03-23T11:05:38;98432.94;;;22.00;30.38
78857;BME280;68207;50.078;19.936;2023-03-23T11:08:16;98425.36;;;22.06;29.99
78857;BME280;68207;50.078;19.936;2023-03-23T11:13:18;98424.76;;;22.04;30.08
78857;BME280;68207;50.078;19.936;2023-03-23T11:15:46;98421.67;;;22.03;30.12
78857;BME280;68207;50.078;19.936;2023-03-23T11:18:23;98415.23;;;22.10;30.14
78857;BME280;68207;50.078;19.936;2023-03-23T11:20:52;98419.55;;;22.19;29.65
78857;BME280;68207;50.078;19.936;2023-03-23T11:23:32;98429.13;;;22.11;29.48
78857;BME280;68207;50.078;19.936;2023-03-23T11:28:46;98411.88;;;22.16;30.29
78857;BME280;68207;50.078;19.936;2023-03-23T11:31:13;98405.67;;;22.25;29.47
78857;BME280;68207;50.078;19.936;2023-03-23T11:33:48;98402.74;;;22.32;29.48
78857;BME280;68207;50.078;19.936;2023-03-23T11:36:16;98409.75;;;22.40;29.78
78857;BME280;68207;50.078;19.936;2023-03-23T11:38:43;98408.42;;;22.44;29.69
78857;BME280;68207;50.078;19.936;2023-03-23T11:41:10;98407.17;;;22.52;29.19
78857;BME280;68207;50.078;19.936;2023-03-23T11:43:40;98402.67;;;22.40;29.80
78857;BME280;68207;50.078;19.936;2023-03-23T11:46:18;98398.76;;;22.36;29.56
78857;BME280;68207;50.078;19.936;2023-03-23T11:49:04;98390.51;;;22.27;29.90
78857;BME280;68207;50.078;19.936;2023-03-23T11:51:48;98404.65;;;22.09;29.55
78857;BME280;68207;50.078;19.936;2023-03-23T11:54:26;98398.55;;;21.76;30.00
78857;BME280;68207;50.078;19.936;2023-03-23T11:56:53;98401.27;;;21.61;30.26
78857;BME280;68207;50.078;19.936;2023-03-23T11:59:33;98398.41;;;21.42;30.30
78857;BME280;68207;50.078;19.936;2023-03-23T12:02:04;98399.52;;;21.23;30.54
78857;BME280;68207;50.078;19.936;2023-03-23T12:04:40;98406.94;;;21.04;30.68
78857;BME280;68207;50.078;19.936;2023-03-23T12:07:29;98412.02;;;20.82;31.21
78857;BME280;68207;50.078;19.936;2023-03-23T12:10:14;98406.34;;;20.62;31.64
78857;BME280;68207;50.078;19.936;2023-03-23T12:13:17;98403.48;;;20.49;31.83
78857;BME280;68207;50.078;19.936;2023-03-23T12:15:54;98405.63;;;20.38;32.20
78857;BME280;68207;50.078;19.936;2023-03-23T12:18:46;98403.27;;;20.34;32.62
78857;BME280;68207;50.078;19.936;2023-03-23T12:21:35;98401.09;;;20.27;32.66
78857;BME280;68207;50.078;19.936;2023-03-23T12:26:52;98404.38;;;20.19;33.12
78857;BME280;68207;50.078;19.936;2023-03-23T12:32:38;98393.90;;;19.99;33.29
78857;BME280;68207;50.078;19.936;2023-03-23T12:38:13;98398.09;;;19.80;33.91
78857;BME280;68207;50.078;19.936;2023-03-23T12:46:11;98392.42;;;19.66;34.57
78857;BME280;68207;50.078;19.936;2023-03-23T12:48:43;98388.98;;;19.63;34.45
78857;BME280;68207;50.078;19.936;2023-03-23T12:53:46;98390.90;;;19.59;34.72
78857;BME280;68207;50.078;19.936;2023-03-23T12:56:29;98380.92;;;19.56;34.84
78857;BME280;68207;50.078;19.936;2023-03-23T12:59:14;98388.70;;;19.53;34.99
78857;BME280;68207;50.078;19.936;2023-03-23T13:01:46;98391.83;;;19.50;35.28
78857;BME280;68207;50.078;19.936;2023-03-23T13:04:20;98391.98;;;19.49;35.47
78857;BME280;68207;50.078;19.936;2023-03-23T13:06:47;98394.42;;;19.47;35.66
78857;BME280;68207;50.078;19.936;2023-03-23T13:09:20;98387.90;;;19.44;35.71
78857;BME280;68207;50.078;19.936;2023-03-23T13:11:49;98392.80;;;19.39;35.80
78857;BME280;68207;50.078;19.936;2023-03-23T13:14:24;98392.22;;;19.34;35.85
78857;BME280;68207;50.078;19.936;2023-03-23T13:17:10;98388.46;;;19.28;36.24
78857;BME280;68207;50.078;19.936;2023-03-23T13:22:32;98390.52;;;19.17;36.53
78857;BME280;68207;50.078;19.936;2023-03-23T13:25:03;98390.10;;;19.15;36.65
78857;BME280;68207;50.078;19.936;2023-03-23T13:27:31;98393.28;;;19.12;37.01
78857;BME280;68207;50.078;19.936;2023-03-23T13:29:57;98396.31;;;19.08;36.90
78857;BME280;68207;50.078;19.936;2023-03-23T13:32:35;98395.13;;;19.02;36.96
78857;BME280;68207;50.078;19.936;2023-03-23T13:35:03;98388.92;;;18.95;37.21
78857;BME280;68207;50.078;19.936;2023-03-23T13:37:29;98388.05;;;18.89;37.31
78857;BME280;68207;50.078;19.936;2023-03-23T13:39:56;98389.16;;;18.85;37.58
78857;BME280;68207;50.078;19.936;2023-03-23T13:42:26;98383.34;;;18.81;37.91
78857;BME280;68207;50.078;19.936;2023-03-23T13:49:50;98386.02;;;18.78;38.09
78857;BME280;68207;50.078;19.936;2023-03-23T13:55:20;98382.74;;;18.70;38.33
78857;BME280;68207;50.078;19.936;2023-03-23T14:10:56;98380.83;;;18.71;38.72
78857;BME280;68207;50.078;19.936;2023-03-23T14:13:28;98383.79;;;18.71;38.88
78857;BME280;68207;50.078;19.936;2023-03-23T14:16:03;98378.23;;;18.69;38.93
78857;BME280;68207;50.078;19.936;2023-03-23T14:18:38;98374.40;;;18.69;38.92